createdAt,value
2022-10-23T00:01:21.020Z,2.38
2022-10-23T00:03:52.830Z,2.65
2022-10-23T00:06:20.308Z,3.42
2022-10-23T00:08:48.277Z,2.85
2022-10-23T00:11:17.459Z,2.50
2022-10-23T00:13:45.837Z,3.33
2022-10-23T00:16:13.340Z,2.63
2022-10-23T00:18:41.171Z,1.88
2022-10-23T00:21:09.903Z,2.40
2022-10-23T00:23:37.477Z,2.38
2022-10-23T00:26:05.469Z,2.38
2022-10-23T00:28:32.928Z,2.75
2022-10-23T00:31:02.838Z,3.20
2022-10-23T00:33:30.381Z,4.65
2022-10-23T00:35:57.928Z,2.67
2022-10-23T00:38:25.813Z,2.47
2022-10-23T00:40:53.312Z,2.25
2022-10-23T00:43:22.401Z,2.45
2022-10-23T00:45:49.888Z,2.17
2022-10-23T00:48:17.794Z,2.83
2022-10-23T00:50:45.442Z,2.50
2022-10-23T00:53:13.797Z,2.50
2022-10-23T00:55:46.578Z,2.92
2022-10-23T00:58:14.928Z,2.47
2022-10-23T01:00:50.212Z,2.33
2022-10-23T01:03:18.652Z,2.28
2022-10-23T01:05:50.993Z,2.53
2022-10-23T01:08:26.123Z,2.88
2022-10-23T01:10:56.390Z,2.13
2022-10-23T01:13:39.733Z,2.78
2022-10-23T01:16:13.017Z,2.60
2022-10-23T01:18:40.647Z,2.97
2022-10-23T01:21:14.992Z,3.17
2022-10-23T01:23:54.140Z,2.58
2022-10-23T01:26:24.458Z,2.97
2022-10-23T01:28:54.287Z,3.40
2022-10-23T01:31:27.500Z,2.53
2022-10-23T01:33:58.393Z,3.58
2022-10-23T01:36:27.850Z,2.65
2022-10-23T01:39:15.490Z,3.80
2022-10-23T01:42:12.524Z,2.97
2022-10-23T01:44:46.094Z,2.75
2022-10-23T01:47:14.959Z,3.53
2022-10-23T01:49:43.182Z,3.00
2022-10-23T01:52:13.533Z,2.28
2022-10-23T01:54:43.334Z,2.70
2022-10-23T01:57:12.072Z,3.03
2022-10-23T01:59:41.433Z,2.65
2022-10-23T02:02:10.910Z,2.35
2022-10-23T02:04:43.264Z,2.42
2022-10-23T02:07:10.853Z,2.28
2022-10-23T02:09:40.537Z,3.20
2022-10-23T02:12:09.737Z,2.67
2022-10-23T02:14:45.145Z,2.80
2022-10-23T02:17:17.464Z,2.63
2022-10-23T02:19:51.548Z,2.05
2022-10-23T02:22:25.363Z,2.40
2022-10-23T02:24:55.439Z,2.35
2022-10-23T02:27:34.398Z,1.77
2022-10-23T02:30:04.693Z,2.60
2022-10-23T02:32:32.351Z,2.70
2022-10-23T02:35:00.005Z,2.92
2022-10-23T02:37:30.549Z,2.40
2022-10-23T02:39:58.007Z,2.45
2022-10-23T02:42:51.753Z,2.47
2022-10-23T02:45:24.862Z,2.63
2022-10-23T02:48:10.963Z,3.03
2022-10-23T02:50:50.757Z,2.85
2022-10-23T02:53:29.862Z,2.60
2022-10-23T02:56:15.663Z,2.95
2022-10-23T02:58:43.067Z,2.95
2022-10-23T03:01:12.386Z,3.08
2022-10-23T03:03:45.582Z,2.42
2022-10-23T03:06:13.067Z,3.17
2022-10-23T03:08:50.903Z,2.95
2022-10-23T03:11:18.518Z,2.22
2022-10-23T03:13:46.103Z,3.47
2022-10-23T03:16:16.178Z,3.70
2022-10-23T03:18:45.659Z,2.85
2022-10-23T03:21:13.057Z,2.78
2022-10-23T03:23:40.563Z,2.88
2022-10-23T03:26:08.069Z,2.15
2022-10-23T03:28:36.226Z,2.30
2022-10-23T03:31:04.393Z,2.60
2022-10-23T03:33:32.554Z,2.28
2022-10-23T03:35:59.946Z,2.40
2022-10-23T03:38:27.394Z,3.13
2022-10-23T03:40:54.880Z,2.55
2022-10-23T03:43:22.306Z,1.90
2022-10-23T03:45:49.777Z,3.88
2022-10-23T03:48:17.229Z,2.72
2022-10-23T03:50:44.975Z,2.38
2022-10-23T03:53:12.400Z,2.97
2022-10-23T03:55:39.906Z,3.03
2022-10-23T03:58:07.375Z,2.60
2022-10-23T04:00:34.802Z,2.42
2022-10-23T04:03:02.442Z,2.85
2022-10-23T04:05:30.077Z,2.33
2022-10-23T04:07:58.153Z,2.75
2022-10-23T04:10:25.523Z,2.42
2022-10-23T04:12:53.024Z,3.03
2022-10-23T04:15:21.436Z,2.85
2022-10-23T04:17:48.957Z,2.42
2022-10-23T04:20:16.449Z,2.60
2022-10-23T04:22:44.207Z,3.53
2022-10-23T04:25:11.964Z,2.92
2022-10-23T04:27:39.508Z,2.78
2022-10-23T04:30:07.350Z,3.63
2022-10-23T04:32:34.843Z,3.42
2022-10-23T04:35:02.358Z,3.17
2022-10-23T04:37:29.779Z,2.53
2022-10-23T04:39:57.182Z,2.17
2022-10-23T04:42:24.710Z,2.08
2022-10-23T04:44:52.162Z,2.13
2022-10-23T04:47:19.627Z,2.85
2022-10-23T04:49:47.318Z,2.55
2022-10-23T04:52:14.853Z,3.00
2022-10-23T04:54:42.272Z,2.67
2022-10-23T04:57:09.873Z,2.47
2022-10-23T04:59:37.402Z,3.05
2022-10-23T05:02:05.078Z,3.70
2022-10-23T05:04:32.535Z,2.30
2022-10-23T05:06:59.956Z,3.30
2022-10-23T05:09:27.382Z,4.03
2022-10-23T05:11:54.826Z,2.95
2022-10-23T05:14:22.946Z,2.53
2022-10-23T05:17:01.045Z,2.92
2022-10-23T05:19:32.187Z,3.53
2022-10-23T05:21:59.733Z,3.35
2022-10-23T05:24:27.564Z,2.85
2022-10-23T05:26:55.103Z,3.60
2022-10-23T05:29:22.660Z,3.25
2022-10-23T05:31:51.508Z,2.97
2022-10-23T05:34:20.700Z,3.35
2022-10-23T05:36:48.536Z,3.15
2022-10-23T05:39:16.391Z,2.58
2022-10-23T05:41:44.039Z,3.03
2022-10-23T05:44:14.571Z,3.00
2022-10-23T05:46:42.861Z,2.65
2022-10-23T05:49:10.347Z,2.67
2022-10-23T05:51:38.550Z,3.50
2022-10-23T05:54:08.780Z,3.47
2022-10-23T05:56:36.982Z,3.10
2022-10-23T05:59:04.763Z,3.50
2022-10-23T06:01:32.367Z,3.13
2022-10-23T06:04:00.913Z,2.50
2022-10-23T06:06:28.357Z,2.75
2022-10-23T06:08:55.811Z,2.85
2022-10-23T06:11:23.605Z,2.85
2022-10-23T06:13:51.077Z,2.63
2022-10-23T06:16:19.608Z,2.88
2022-10-23T06:18:47.416Z,2.60
2022-10-23T06:21:15.806Z,3.08
2022-10-23T06:23:44.381Z,3.03
2022-10-23T06:26:13.126Z,3.35
2022-10-23T06:28:40.887Z,2.55
2022-10-23T06:31:13.159Z,3.08
2022-10-23T06:33:41.055Z,3.50
2022-10-23T06:36:11.005Z,2.65
2022-10-23T06:38:40.986Z,3.13
2022-10-23T06:41:12.315Z,2.60
2022-10-23T06:43:39.790Z,3.35
2022-10-23T06:46:07.503Z,2.70
2022-10-23T06:48:34.942Z,2.92
2022-10-23T06:51:06.677Z,3.05
2022-10-23T06:53:34.829Z,3.00
2022-10-23T06:56:02.981Z,2.72
2022-10-23T06:58:30.535Z,3.08
2022-10-23T07:01:01.056Z,4.10
2022-10-23T07:03:28.918Z,2.92
2022-10-23T07:05:56.340Z,2.53
2022-10-23T07:08:24.557Z,3.55
2022-10-23T07:10:52.020Z,4.45
2022-10-23T07:13:19.402Z,3.30
2022-10-23T07:15:46.857Z,2.88
2022-10-23T07:18:17.107Z,3.78
2022-10-23T07:20:44.560Z,3.67
2022-10-23T07:23:12.869Z,3.83
2022-10-23T07:25:40.304Z,4.13
2022-10-23T07:28:07.735Z,3.53
2022-10-23T07:30:35.171Z,3.50
2022-10-23T07:33:02.673Z,3.05
2022-10-23T07:35:33.078Z,3.50
2022-10-23T07:40:30.296Z,2.47
2022-10-23T07:42:57.750Z,3.17
2022-10-23T07:45:25.225Z,4.85
2022-10-23T07:47:52.921Z,3.70
2022-10-23T07:50:20.344Z,3.83
2022-10-23T07:52:50.184Z,3.38
2022-10-23T07:55:17.673Z,2.78
2022-10-23T07:57:45.180Z,3.45
2022-10-23T08:00:12.904Z,3.05
2022-10-23T08:02:40.759Z,4.40
2022-10-23T08:05:08.615Z,3.60
2022-10-23T08:07:36.136Z,2.78
2022-10-23T08:10:03.656Z,3.13
2022-10-23T08:12:31.116Z,3.10
2022-10-23T08:14:58.603Z,3.55
2022-10-23T08:17:28.199Z,3.30
2022-10-23T08:19:55.954Z,3.85
2022-10-23T08:22:23.387Z,3.58
2022-10-23T08:24:50.906Z,4.13
2022-10-23T08:27:18.367Z,3.97
2022-10-23T08:29:45.961Z,3.10
2022-10-23T08:32:13.436Z,3.10
2022-10-23T08:34:41.841Z,3.33
2022-10-23T08:37:09.357Z,3.58
2022-10-23T08:39:37.195Z,3.30
2022-10-23T08:42:05.965Z,3.75
2022-10-23T08:44:39.760Z,4.10
2022-10-23T08:47:07.185Z,3.00
2022-10-23T08:49:56.144Z,3.85
2022-10-23T08:52:23.540Z,3.10
2022-10-23T08:54:56.046Z,3.55
2022-10-23T08:57:24.697Z,4.13
2022-10-23T09:00:02.370Z,4.28
2022-10-23T09:02:35.733Z,3.08
2022-10-23T09:05:03.517Z,4.15
2022-10-23T09:07:34.769Z,4.22
2022-10-23T09:10:23.046Z,3.83
2022-10-23T09:12:51.743Z,4.40
2022-10-23T09:15:32.363Z,4.00
2022-10-23T09:18:01.246Z,3.70
2022-10-23T09:20:36.255Z,3.28
2022-10-23T09:23:08.692Z,3.72
2022-10-23T09:25:38.500Z,3.63
2022-10-23T09:28:06.002Z,4.22
2022-10-23T09:30:36.550Z,3.78
2022-10-23T09:33:24.241Z,4.80
2022-10-23T09:35:53.201Z,4.22
2022-10-23T09:38:39.835Z,4.43
2022-10-23T09:41:08.430Z,3.80
2022-10-23T09:43:35.876Z,3.28
2022-10-23T09:46:05.663Z,3.53
2022-10-23T09:48:33.595Z,3.42
2022-10-23T09:51:02.497Z,5.35
2022-10-23T09:53:29.966Z,4.10
2022-10-23T09:55:58.555Z,3.50
2022-10-23T09:58:30.442Z,3.92
2022-10-23T10:00:58.112Z,3.78
2022-10-23T10:03:26.366Z,4.03
2022-10-23T10:05:55.716Z,3.78
2022-10-23T10:08:41.645Z,3.67
2022-10-23T10:11:29.764Z,4.63
2022-10-23T10:13:57.190Z,4.15
2022-10-23T10:16:33.397Z,3.05
2022-10-23T10:19:07.274Z,4.30
2022-10-23T10:21:44.835Z,3.70
2022-10-23T10:24:18.516Z,3.67
2022-10-23T10:27:21.592Z,3.58
2022-10-23T10:30:02.464Z,4.43
2022-10-23T10:32:48.565Z,4.35
2022-10-23T10:35:26.689Z,4.00
2022-10-23T10:38:12.642Z,4.22
2022-10-23T10:40:42.901Z,4.13
2022-10-23T10:43:11.639Z,3.95
2022-10-23T10:45:45.835Z,3.45
2022-10-23T10:48:13.256Z,4.13
2022-10-23T10:50:43.799Z,4.00
2022-10-23T10:53:20.276Z,3.60
2022-10-23T10:55:49.628Z,3.65
2022-10-23T10:58:16.998Z,3.88
2022-10-23T11:00:45.603Z,3.85
2022-10-23T11:03:34.826Z,3.22
2022-10-23T11:06:05.178Z,4.32
2022-10-23T11:08:50.049Z,4.10
2022-10-23T11:11:29.221Z,4.13
2022-10-23T11:13:56.734Z,3.90
2022-10-23T11:16:24.355Z,3.63
2022-10-23T11:19:03.436Z,3.28
2022-10-23T11:21:41.514Z,3.17
2022-10-23T11:24:27.634Z,4.18
2022-10-23T11:27:04.094Z,3.10
2022-10-23T11:29:52.356Z,4.10
2022-10-23T11:35:11.496Z,3.83
2022-10-23T11:37:38.925Z,3.30
2022-10-23T11:40:09.315Z,3.30
2022-10-23T11:42:42.791Z,4.20
2022-10-23T11:45:35.177Z,3.20
2022-10-23T11:48:14.850Z,3.33
2022-10-23T11:50:48.129Z,3.85
2022-10-23T11:53:38.645Z,3.55
2022-10-23T11:56:18.225Z,2.95
2022-10-23T11:58:48.555Z,3.70
2022-10-23T12:01:22.338Z,3.72
2022-10-23T12:03:49.816Z,3.10
2022-10-23T12:06:40.655Z,3.95
2022-10-23T12:09:26.664Z,3.60
2022-10-23T12:12:17.477Z,3.28
2022-10-23T12:14:53.954Z,3.00
2022-10-23T12:17:29.718Z,3.33
2022-10-23T12:20:03.471Z,3.15
2022-10-23T12:22:46.190Z,4.05
2022-10-23T12:25:36.845Z,3.60
2022-10-23T12:28:23.249Z,2.85
2022-10-23T12:31:09.322Z,4.07
2022-10-23T12:33:46.730Z,3.33
2022-10-23T12:36:24.446Z,3.05
2022-10-23T12:38:51.913Z,3.80
2022-10-23T12:41:25.755Z,3.08
2022-10-23T12:44:01.309Z,3.80
2022-10-23T12:46:36.676Z,3.50
2022-10-23T12:49:05.169Z,3.47
2022-10-23T12:51:34.275Z,2.35
2022-10-23T12:54:02.364Z,2.47
2022-10-23T12:56:35.604Z,3.70
2022-10-23T12:59:05.686Z,3.47
2022-10-23T13:01:34.830Z,4.00
2022-10-23T13:04:11.423Z,3.30
2022-10-23T13:06:40.252Z,3.10
2022-10-23T13:09:14.063Z,3.50
2022-10-23T13:11:41.604Z,2.53
2022-10-23T13:14:14.801Z,3.53
2022-10-23T13:16:42.543Z,3.03
2022-10-23T13:19:23.244Z,2.80
2022-10-23T13:21:50.700Z,2.67
2022-10-23T13:24:21.078Z,2.70
2022-10-23T13:26:49.439Z,2.42
2022-10-23T13:29:31.653Z,3.30
2022-10-23T13:32:11.361Z,3.40
2022-10-23T13:34:38.795Z,4.05
2022-10-23T13:37:25.080Z,2.90
2022-10-23T13:40:03.671Z,2.55
2022-10-23T13:42:31.136Z,3.38
2022-10-23T13:44:58.625Z,2.53
2022-10-23T13:47:26.047Z,3.17
2022-10-23T13:49:53.507Z,2.65
2022-10-23T13:52:24.115Z,2.97
2022-10-23T13:54:53.311Z,3.67
2022-10-23T13:57:22.041Z,3.72
2022-10-23T13:59:49.489Z,3.25
2022-10-23T14:02:24.252Z,2.42
2022-10-23T14:04:52.140Z,2.33
2022-10-23T14:07:19.848Z,2.78
2022-10-23T14:09:48.480Z,2.35
2022-10-23T14:12:17.794Z,3.45
2022-10-23T14:14:45.365Z,2.75
2022-10-23T14:17:15.575Z,2.50
2022-10-23T14:19:42.996Z,2.35
2022-10-23T14:22:11.606Z,2.92
2022-10-23T14:24:39.007Z,2.63
2022-10-23T14:27:06.568Z,2.50
2022-10-23T14:29:34.016Z,2.75
2022-10-23T14:32:01.499Z,2.25
2022-10-23T14:34:30.555Z,2.40
2022-10-23T14:37:08.112Z,2.80
2022-10-23T14:39:36.529Z,1.77
2022-10-23T14:42:04.054Z,2.30
2022-10-23T14:44:31.621Z,3.65
2022-10-23T14:47:00.246Z,2.13
2022-10-23T14:49:27.688Z,2.75
2022-10-23T14:51:55.245Z,2.05
2022-10-23T14:54:22.814Z,3.13
2022-10-23T14:56:50.220Z,2.50
2022-10-23T14:59:17.644Z,2.72
2022-10-23T15:01:48.384Z,1.80
2022-10-23T15:04:16.359Z,1.80
2022-10-23T15:06:44.438Z,2.15
2022-10-23T15:09:12.228Z,2.25
2022-10-23T15:11:39.782Z,2.03
2022-10-23T15:14:07.241Z,2.13
2022-10-23T15:16:41.832Z,1.98
2022-10-23T15:19:17.363Z,2.53
2022-10-23T15:21:46.679Z,2.90
2022-10-23T15:24:14.168Z,2.33
2022-10-23T15:26:43.829Z,2.45
2022-10-23T15:29:11.961Z,2.58
2022-10-23T15:31:41.433Z,2.20
2022-10-23T15:42:06.305Z,2.17
2022-10-23T17:26:49.089Z,2.10
2022-10-23T17:37:36.433Z,2.00
2022-10-23T18:38:59.950Z,2.08
2022-10-23T18:41:27.976Z,2.20
2022-10-23T18:43:56.001Z,2.00
2022-10-23T18:46:23.518Z,1.77
2022-10-23T18:48:53.834Z,2.03
2022-10-23T18:51:26.190Z,1.70
2022-10-23T18:53:53.881Z,1.77
2022-10-23T18:56:25.521Z,2.38
2022-10-23T18:58:57.512Z,2.13
2022-10-23T19:01:25.851Z,2.22
2022-10-23T19:03:53.730Z,1.40
2022-10-23T19:06:22.269Z,1.58
2022-10-23T19:08:50.187Z,1.98
2022-10-23T19:11:18.692Z,1.90
2022-10-23T19:13:46.287Z,1.50
2022-10-23T19:16:15.709Z,1.98
2022-10-23T19:18:46.244Z,2.25
2022-10-23T19:21:14.719Z,1.70
2022-10-23T19:23:43.109Z,2.45
2022-10-23T19:26:13.874Z,1.95
2022-10-23T19:28:43.037Z,1.70
2022-10-23T19:31:11.294Z,2.10
2022-10-23T19:36:23.399Z,2.05
2022-10-23T19:38:51.434Z,1.80
2022-10-23T19:41:19.479Z,2.33
2022-10-23T19:43:47.116Z,2.90
2022-10-23T19:57:23.673Z,2.00
2022-10-23T20:25:12.903Z,1.73
2022-10-23T21:04:12.057Z,1.83
2022-10-23T21:32:02.975Z,1.60
2022-10-23T21:34:31.157Z,1.77
2022-10-23T21:37:14.956Z,1.90
2022-10-23T21:39:35.324Z,3.83
2022-10-23T21:42:04.636Z,2.55
2022-10-23T21:44:57.302Z,1.75
2022-10-23T21:47:27.611Z,2.08
2022-10-23T21:50:26.758Z,2.33
2022-10-23T21:53:18.943Z,1.88
2022-10-23T21:55:47.493Z,1.73
2022-10-23T21:58:41.414Z,1.98
2022-10-23T22:04:03.169Z,1.73
2022-10-23T22:06:31.654Z,1.83
2022-10-23T22:09:00.110Z,1.85
2022-10-23T22:11:28.521Z,2.17
2022-10-23T22:14:00.319Z,2.33
2022-10-23T22:16:29.637Z,2.43
2022-10-23T22:19:00.063Z,2.13
2022-10-23T22:21:31.310Z,1.55
2022-10-23T22:23:59.886Z,2.00
2022-10-23T22:26:36.707Z,2.30
2022-10-23T22:29:08.369Z,2.65
2022-10-23T22:34:52.742Z,2.63
2022-10-23T22:37:21.011Z,3.10
2022-10-23T22:39:52.793Z,2.50
2022-10-23T22:42:23.323Z,1.90
2022-10-23T22:44:51.018Z,2.53
2022-10-23T22:47:19.673Z,2.00
2022-10-23T22:49:47.842Z,2.53
2022-10-23T22:52:15.705Z,2.47
2022-10-23T22:57:28.811Z,2.65
2022-10-23T22:59:56.896Z,2.58
2022-10-23T23:02:24.817Z,2.50
2022-10-23T23:04:52.632Z,2.10
2022-10-23T23:07:20.310Z,2.72
2022-10-23T23:09:48.076Z,2.03
2022-10-23T23:14:52.736Z,1.90
2022-10-23T23:17:23.267Z,1.70
2022-10-23T23:19:50.832Z,3.05
2022-10-23T23:28:04.207Z,2.83
2022-10-23T23:38:39.166Z,2.33
2022-10-23T23:41:10.277Z,2.10
2022-10-23T23:43:42.098Z,2.92
2022-10-23T23:46:14.210Z,2.80
2022-10-23T23:48:51.044Z,2.33
2022-10-23T23:51:25.415Z,2.75
2022-10-23T23:54:03.962Z,2.42
2022-10-23T23:56:35.493Z,3.17
